sensor_id;sensor_type;location;lat;lon;timestamp;temperature;humidity
46492;DHT22;32206;51.446;6.792;2022-09-09T00:04:32;16.60;94.60
46492;DHT22;32206;51.446;6.792;2022-09-09T00:15:21;16.50;94.60
46492;DHT22;32206;51.446;6.792;2022-09-09T00:20:42;16.50;95.50
46492;DHT22;32206;51.446;6.792;2022-09-09T00:23:33;16.60;94.20
46492;DHT22;32206;51.446;6.792;2022-09-09T00:26:02;16.60;94.50
46492;DHT22;32206;51.446;6.792;2022-09-09T00:28:32;16.50;93.20
46492;DHT22;32206;51.446;6.792;2022-09-09T00:31:08;16.50;93.20
46492;DHT22;32206;51.446;6.792;2022-09-09T00:33:36;16.40;93.30
46492;DHT22;32206;51.446;6.792;2022-09-09T00:36:12;16.40;94.10
46492;DHT22;32206;51.446;6.792;2022-09-09T00:38:51;16.40;94.10
46492;DHT22;32206;51.446;6.792;2022-09-09T00:46:50;16.30;95.70
46492;DHT22;32206;51.446;6.792;2022-09-09T00:49:50;16.40;95.70
46492;DHT22;32206;51.446;6.792;2022-09-09T00:57:52;16.30;96.30
46492;DHT22;32206;51.446;6.792;2022-09-09T01:00:25;16.20;96.70
46492;DHT22;32206;51.446;6.792;2022-09-09T01:08:35;16.20;97.60
46492;DHT22;32206;51.446;6.792;2022-09-09T01:11:04;16.20;96.90
46492;DHT22;32206;51.446;6.792;2022-09-09T01:13:32;16.20;96.30
46492;DHT22;32206;51.446;6.792;2022-09-09T01:16:01;16.20;97.10
46492;DHT22;32206;51.446;6.792;2022-09-09T01:18:37;16.20;97.10
46492;DHT22;32206;51.446;6.792;2022-09-09T01:21:32;16.20;97.00
46492;DHT22;32206;51.446;6.792;2022-09-09T01:27:10;16.20;97.40
46492;DHT22;32206;51.446;6.792;2022-09-09T01:29:37;16.20;97.40
46492;DHT22;32206;51.446;6.792;2022-09-09T01:32:40;16.20;97.60
46492;DHT22;32206;51.446;6.792;2022-09-09T01:35:13;16.20;97.10
46492;DHT22;32206;51.446;6.792;2022-09-09T01:37:40;16.20;97.30
46492;DHT22;32206;51.446;6.792;2022-09-09T01:40:07;16.50;97.30
46492;DHT22;32206;51.446;6.792;2022-09-09T01:42:32;16.20;96.50
46492;DHT22;32206;51.446;6.792;2022-09-09T01:44:58;16.20;96.50
46492;DHT22;32206;51.446;6.792;2022-09-09T01:47:24;16.30;95.90
46492;DHT22;32206;51.446;6.792;2022-09-09T01:49:50;16.30;95.50
46492;DHT22;32206;51.446;6.792;2022-09-09T01:52:15;16.20;95.60
46492;DHT22;32206;51.446;6.792;2022-09-09T01:54:41;16.10;95.50
46492;DHT22;32206;51.446;6.792;2022-09-09T02:00:05;16.10;95.90
46492;DHT22;32206;51.446;6.792;2022-09-09T02:05:42;16.10;96.40
46492;DHT22;32206;51.446;6.792;2022-09-09T02:08:23;16.00;96.30
46492;DHT22;32206;51.446;6.792;2022-09-09T02:10:56;16.00;97.40
46492;DHT22;32206;51.446;6.792;2022-09-09T02:13:24;16.00;97.40
46492;DHT22;32206;51.446;6.792;2022-09-09T02:16:03;16.00;97.70
46492;DHT22;32206;51.446;6.792;2022-09-09T02:21:10;16.10;98.00
46492;DHT22;32206;51.446;6.792;2022-09-09T02:23:38;16.10;97.70
46492;DHT22;32206;51.446;6.792;2022-09-09T02:26:06;16.30;97.80
46492;DHT22;32206;51.446;6.792;2022-09-09T02:28:34;16.20;98.10
46492;DHT22;32206;51.446;6.792;2022-09-09T02:31:02;16.20;98.20
46492;DHT22;32206;51.446;6.792;2022-09-09T02:33:32;16.20;98.00
46492;DHT22;32206;51.446;6.792;2022-09-09T02:36:01;16.20;98.30
46492;DHT22;32206;51.446;6.792;2022-09-09T02:38:31;16.30;98.10
46492;DHT22;32206;51.446;6.792;2022-09-09T02:40:58;16.30;98.00
46492;DHT22;32206;51.446;6.792;2022-09-09T02:43:24;16.30;97.70
46492;DHT22;32206;51.446;6.792;2022-09-09T02:48:48;16.40;98.10
46492;DHT22;32206;51.446;6.792;2022-09-09T02:51:31;16.40;97.60
46492;DHT22;32206;51.446;6.792;2022-09-09T02:54:10;16.40;97.30
46492;DHT22;32206;51.446;6.792;2022-09-09T02:56:40;16.40;97.00
46492;DHT22;32206;51.446;6.792;2022-09-09T02:59:07;16.50;98.10
46492;DHT22;32206;51.446;6.792;2022-09-09T03:01:33;16.40;97.90
46492;DHT22;32206;51.446;6.792;2022-09-09T03:04:01;16.40;97.60
46492;DHT22;32206;51.446;6.792;2022-09-09T03:06:27;16.40;96.40
46492;DHT22;32206;51.446;6.792;2022-09-09T03:08:53;16.40;95.90
46492;DHT22;32206;51.446;6.792;2022-09-09T03:11:19;16.40;96.20
46492;DHT22;32206;51.446;6.792;2022-09-09T03:13:44;16.40;95.80
46492;DHT22;32206;51.446;6.792;2022-09-09T03:16:10;16.40;95.50
46492;DHT22;32206;51.446;6.792;2022-09-09T03:18:35;16.40;95.60
46492;DHT22;32206;51.446;6.792;2022-09-09T03:21:01;16.40;94.60
46492;DHT22;32206;51.446;6.792;2022-09-09T03:23:27;16.40;95.70
46492;DHT22;32206;51.446;6.792;2022-09-09T03:25:53;16.40;95.50
46492;DHT22;32206;51.446;6.792;2022-09-09T03:28:22;16.40;95.70
46492;DHT22;32206;51.446;6.792;2022-09-09T03:30:48;16.60;95.00
46492;DHT22;32206;51.446;6.792;2022-09-09T03:33:14;16.40;95.80
46492;DHT22;32206;51.446;6.792;2022-09-09T03:35:45;16.50;95.50
46492;DHT22;32206;51.446;6.792;2022-09-09T03:38:12;16.50;96.10
46492;DHT22;32206;51.446;6.792;2022-09-09T03:40:38;16.50;95.80
46492;DHT22;32206;51.446;6.792;2022-09-09T03:43:04;16.50;95.80
46492;DHT22;32206;51.446;6.792;2022-09-09T03:45:30;16.50;95.80
46492;DHT22;32206;51.446;6.792;2022-09-09T03:47:55;16.50;95.90
46492;DHT22;32206;51.446;6.792;2022-09-09T03:50:22;16.50;95.70
46492;DHT22;32206;51.446;6.792;2022-09-09T03:52:49;16.50;95.90
46492;DHT22;32206;51.446;6.792;2022-09-09T03:55:14;16.50;96.20
46492;DHT22;32206;51.446;6.792;2022-09-09T03:57:40;16.50;96.30
46492;DHT22;32206;51.446;6.792;2022-09-09T04:00:07;16.40;96.00
46492;DHT22;32206;51.446;6.792;2022-09-09T04:02:33;16.40;96.10
46492;DHT22;32206;51.446;6.792;2022-09-09T04:04:58;16.50;95.90
46492;DHT22;32206;51.446;6.792;2022-09-09T04:07:25;16.50;96.00
46492;DHT22;32206;51.446;6.792;2022-09-09T04:09:52;16.40;96.10
46492;DHT22;32206;51.446;6.792;2022-09-09T04:12:18;16.50;96.20
46492;DHT22;32206;51.446;6.792;2022-09-09T04:14:44;16.50;96.10
46492;DHT22;32206;51.446;6.792;2022-09-09T04:17:09;16.50;96.30
46492;DHT22;32206;51.446;6.792;2022-09-09T04:19:35;16.50;95.90
46492;DHT22;32206;51.446;6.792;2022-09-09T04:22:00;16.50;95.80
46492;DHT22;32206;51.446;6.792;2022-09-09T04:24:26;16.60;96.50
46492;DHT22;32206;51.446;6.792;2022-09-09T04:26:52;16.50;96.30
46492;DHT22;32206;51.446;6.792;2022-09-09T04:29:18;16.80;96.40
46492;DHT22;32206;51.446;6.792;2022-09-09T04:31:43;16.50;96.30
46492;DHT22;32206;51.446;6.792;2022-09-09T04:34:10;16.50;96.70
46492;DHT22;32206;51.446;6.792;2022-09-09T04:36:35;16.50;96.80
46492;DHT22;32206;51.446;6.792;2022-09-09T04:39:01;16.50;96.80
46492;DHT22;32206;51.446;6.792;2022-09-09T04:41:27;16.50;96.60
46492;DHT22;32206;51.446;6.792;2022-09-09T04:43:54;16.40;96.70
46492;DHT22;32206;51.446;6.792;2022-09-09T04:46:20;16.40;97.10
46492;DHT22;32206;51.446;6.792;2022-09-09T04:48:48;16.50;96.90
46492;DHT22;32206;51.446;6.792;2022-09-09T04:51:15;16.50;97.40
46492;DHT22;32206;51.446;6.792;2022-09-09T04:53:41;16.50;97.40
46492;DHT22;32206;51.446;6.792;2022-09-09T04:56:11;16.60;96.10
46492;DHT22;32206;51.446;6.792;2022-09-09T04:58:38;16.50;95.90
46492;DHT22;32206;51.446;6.792;2022-09-09T05:01:09;16.50;96.10
46492;DHT22;32206;51.446;6.792;2022-09-09T05:03:36;16.60;96.30
46492;DHT22;32206;51.446;6.792;2022-09-09T05:06:09;16.50;96.10
46492;DHT22;32206;51.446;6.792;2022-09-09T05:08:37;16.60;96.00
46492;DHT22;32206;51.446;6.792;2022-09-09T05:11:13;16.60;95.70
46492;DHT22;32206;51.446;6.792;2022-09-09T05:13:39;16.60;95.40
46492;DHT22;32206;51.446;6.792;2022-09-09T05:16:04;16.60;95.20
46492;DHT22;32206;51.446;6.792;2022-09-09T05:18:30;16.60;94.30
46492;DHT22;32206;51.446;6.792;2022-09-09T05:20:59;16.70;93.50
46492;DHT22;32206;51.446;6.792;2022-09-09T05:23:25;16.60;93.00
46492;DHT22;32206;51.446;6.792;2022-09-09T05:25:56;16.70;92.10
46492;DHT22;32206;51.446;6.792;2022-09-09T05:28:22;16.60;93.10
46492;DHT22;32206;51.446;6.792;2022-09-09T05:30:58;16.60;93.40
46492;DHT22;32206;51.446;6.792;2022-09-09T05:33:26;16.70;93.50
46492;DHT22;32206;51.446;6.792;2022-09-09T05:35:58;16.70;93.00
46492;DHT22;32206;51.446;6.792;2022-09-09T05:38:25;16.70;92.10
46492;DHT22;32206;51.446;6.792;2022-09-09T05:40:51;16.70;92.70
46492;DHT22;32206;51.446;6.792;2022-09-09T05:43:18;16.80;93.00
46492;DHT22;32206;51.446;6.792;2022-09-09T05:45:46;16.70;92.90
46492;DHT22;32206;51.446;6.792;2022-09-09T05:48:16;16.80;91.70
46492;DHT22;32206;51.446;6.792;2022-09-09T05:50:42;16.70;91.70
46492;DHT22;32206;51.446;6.792;2022-09-09T05:53:11;16.70;91.70
46492;DHT22;32206;51.446;6.792;2022-09-09T05:55:36;16.70;91.90
46492;DHT22;32206;51.446;6.792;2022-09-09T05:58:02;16.80;91.80
46492;DHT22;32206;51.446;6.792;2022-09-09T06:00:28;16.80;92.50
46492;DHT22;32206;51.446;6.792;2022-09-09T06:02:56;16.80;91.90
46492;DHT22;32206;51.446;6.792;2022-09-09T06:05:22;16.90;90.80
46492;DHT22;32206;51.446;6.792;2022-09-09T06:07:52;16.80;90.40
46492;DHT22;32206;51.446;6.792;2022-09-09T06:10:17;16.90;90.70
46492;DHT22;32206;51.446;6.792;2022-09-09T06:12:44;16.80;90.60
46492;DHT22;32206;51.446;6.792;2022-09-09T06:15:10;17.10;91.50
46492;DHT22;32206;51.446;6.792;2022-09-09T06:17:35;16.80;90.90
46492;DHT22;32206;51.446;6.792;2022-09-09T06:20:02;16.70;90.70
46492;DHT22;32206;51.446;6.792;2022-09-09T06:22:27;16.90;90.90
46492;DHT22;32206;51.446;6.792;2022-09-09T06:24:53;16.90;91.70
46492;DHT22;32206;51.446;6.792;2022-09-09T06:27:19;17.10;92.40
46492;DHT22;32206;51.446;6.792;2022-09-09T06:29:44;16.90;92.30
46492;DHT22;32206;51.446;6.792;2022-09-09T06:32:10;17.10;92.60
46492;DHT22;32206;51.446;6.792;2022-09-09T06:34:35;16.90;92.50
46492;DHT22;32206;51.446;6.792;2022-09-09T06:37:02;17.00;92.60
46492;DHT22;32206;51.446;6.792;2022-09-09T06:39:27;17.00;92.50
46492;DHT22;32206;51.446;6.792;2022-09-09T06:41:53;17.30;91.80
46492;DHT22;32206;51.446;6.792;2022-09-09T06:44:19;17.20;91.60
46492;DHT22;32206;51.446;6.792;2022-09-09T06:46:45;17.10;91.80
46492;DHT22;32206;51.446;6.792;2022-09-09T06:49:13;17.10;90.60
46492;DHT22;32206;51.446;6.792;2022-09-09T06:51:39;17.20;91.50
46492;DHT22;32206;51.446;6.792;2022-09-09T06:54:08;17.20;88.80
46492;DHT22;32206;51.446;6.792;2022-09-09T06:56:36;17.10;85.80
46492;DHT22;32206;51.446;6.792;2022-09-09T06:59:04;17.20;82.50
46492;DHT22;32206;51.446;6.792;2022-09-09T07:01:35;17.20;80.10
46492;DHT22;32206;51.446;6.792;2022-09-09T07:04:02;17.20;79.40
46492;DHT22;32206;51.446;6.792;2022-09-09T07:06:31;17.30;75.70
46492;DHT22;32206;51.446;6.792;2022-09-09T07:09:00;17.30;69.30
46492;DHT22;32206;51.446;6.792;2022-09-09T07:11:31;17.30;62.00
46492;DHT22;32206;51.446;6.792;2022-09-09T07:13:58;17.30;56.00
46492;DHT22;32206;51.446;6.792;2022-09-09T07:16:24;17.30;43.10
46492;DHT22;32206;51.446;6.792;2022-09-09T07:18:54;17.30;47.40
46492;DHT22;32206;51.446;6.792;2022-09-09T07:21:27;17.40;45.10
46492;DHT22;32206;51.446;6.792;2022-09-09T07:23:53;17.40;47.60
46492;DHT22;32206;51.446;6.792;2022-09-09T07:26:21;17.50;38.90
46492;DHT22;32206;51.446;6.792;2022-09-09T07:28:47;17.50;40.80
46492;DHT22;32206;51.446;6.792;2022-09-09T07:31:16;17.60;32.60
46492;DHT22;32206;51.446;6.792;2022-09-09T07:33:43;17.70;10.30
46492;DHT22;32206;51.446;6.792;2022-09-09T07:36:13;17.70;12.80
46492;DHT22;32206;51.446;6.792;2022-09-09T07:38:43;17.80;12.90
46492;DHT22;32206;51.446;6.792;2022-09-09T07:41:12;17.80;16.30
46492;DHT22;32206;51.446;6.792;2022-09-09T07:43:40;17.90;1.00
46492;DHT22;32206;51.446;6.792;2022-09-09T07:46:05;17.90;1.00
46492;DHT22;32206;51.446;6.792;2022-09-09T07:48:31;18.00;1.00
46492;DHT22;32206;51.446;6.792;2022-09-09T07:51:09;18.00;1.00
46492;DHT22;32206;51.446;6.792;2022-09-09T07:53:38;18.10;1.00
46492;DHT22;32206;51.446;6.792;2022-09-09T07:56:08;18.10;1.00
46492;DHT22;32206;51.446;6.792;2022-09-09T07:58:36;18.20;1.00
46492;DHT22;32206;51.446;6.792;2022-09-09T08:01:10;18.20;1.00
46492;DHT22;32206;51.446;6.792;2022-09-09T08:03:37;18.20;1.00
46492;DHT22;32206;51.446;6.792;2022-09-09T08:06:04;18.20;1.00
46492;DHT22;32206;51.446;6.792;2022-09-09T08:08:32;18.30;1.00
46492;DHT22;32206;51.446;6.792;2022-09-09T08:11:17;18.30;1.00
46492;DHT22;32206;51.446;6.792;2022-09-09T08:13:44;18.40;1.00
46492;DHT22;32206;51.446;6.792;2022-09-09T08:16:12;18.40;1.00
46492;DHT22;32206;51.446;6.792;2022-09-09T08:18:39;18.50;1.00
46492;DHT22;32206;51.446;6.792;2022-09-09T08:21:10;18.50;1.00
46492;DHT22;32206;51.446;6.792;2022-09-09T08:23:42;18.60;99.90
46492;DHT22;32206;51.446;6.792;2022-09-09T08:26:13;18.60;99.90
46492;DHT22;32206;51.446;6.792;2022-09-09T08:28:40;18.70;99.90
46492;DHT22;32206;51.446;6.792;2022-09-09T08:33:56;18.80;99.90
46492;DHT22;32206;51.446;6.792;2022-09-09T08:36:23;18.80;99.90
46492;DHT22;32206;51.446;6.792;2022-09-09T08:38:54;18.80;99.90
46492;DHT22;32206;51.446;6.792;2022-09-09T08:41:45;18.80;96.60
46492;DHT22;32206;51.446;6.792;2022-09-09T08:53:00;19.10;99.90
46492;DHT22;32206;51.446;6.792;2022-09-09T08:58:11;19.30;1.00
46492;DHT22;32206;51.446;6.792;2022-09-09T09:11:49;19.50;1.00
46492;DHT22;32206;51.446;6.792;2022-09-09T09:14:25;19.50;99.90
46492;DHT22;32206;51.446;6.792;2022-09-09T09:19:22;19.50;99.90
46492;DHT22;32206;51.446;6.792;2022-09-09T09:30:24;19.50;55.80
46492;DHT22;32206;51.446;6.792;2022-09-09T09:33:01;19.50;99.90
46492;DHT22;32206;51.446;6.792;2022-09-09T09:35:28;19.60;99.90
46492;DHT22;32206;51.446;6.792;2022-09-09T09:37:53;19.60;1.00
46492;DHT22;32206;51.446;6.792;2022-09-09T09:40:21;19.50;99.90
46492;DHT22;32206;51.446;6.792;2022-09-09T09:43:16;19.60;1.00
46492;DHT22;32206;51.446;6.792;2022-09-09T09:45:44;19.60;99.90
46492;DHT22;32206;51.446;6.792;2022-09-09T09:48:12;19.60;99.90
46492;DHT22;32206;51.446;6.792;2022-09-09T09:50:53;19.60;1.00
46492;DHT22;32206;51.446;6.792;2022-09-09T09:53:30;19.60;1.00
46492;DHT22;32206;51.446;6.792;2022-09-09T09:56:05;19.60;99.90
46492;DHT22;32206;51.446;6.792;2022-09-09T09:58:50;19.60;1.00
46492;DHT22;32206;51.446;6.792;2022-09-09T10:01:27;19.60;1.00
46492;DHT22;32206;51.446;6.792;2022-09-09T10:04:14;19.70;99.90
46492;DHT22;32206;51.446;6.792;2022-09-09T10:06:41;19.70;1.00
46492;DHT22;32206;51.446;6.792;2022-09-09T10:09:27;19.80;99.90
46492;DHT22;32206;51.446;6.792;2022-09-09T10:26:55;20.10;1.00
46492;DHT22;32206;51.446;6.792;2022-09-09T10:32:33;20.10;1.00
46492;DHT22;32206;51.446;6.792;2022-09-09T10:35:29;20.10;1.00
46492;DHT22;32206;51.446;6.792;2022-09-09T10:38:03;20.10;14.90
46492;DHT22;32206;51.446;6.792;2022-09-09T10:40:39;20.10;65.20
46492;DHT22;32206;51.446;6.792;2022-09-09T10:49:00;20.00;99.90
46492;DHT22;32206;51.446;6.792;2022-09-09T10:51:55;20.00;99.90
46492;DHT22;32206;51.446;6.792;2022-09-09T10:59:50;20.00;99.90
46492;DHT22;32206;51.446;6.792;2022-09-09T11:02:27;20.00;69.10
46492;DHT22;32206;51.446;6.792;2022-09-09T11:13:24;20.10;8.00
46492;DHT22;32206;51.446;6.792;2022-09-09T11:15:57;20.10;1.00
46492;DHT22;32206;51.446;6.792;2022-09-09T11:18:23;20.20;1.00
46492;DHT22;32206;51.446;6.792;2022-09-09T11:20:53;20.10;44.40
46492;DHT22;32206;51.446;6.792;2022-09-09T11:23:40;20.20;1.00
46492;DHT22;32206;51.446;6.792;2022-09-09T11:26:13;20.30;1.00
46492;DHT22;32206;51.446;6.792;2022-09-09T11:31:33;20.20;70.60
46492;DHT22;32206;51.446;6.792;2022-09-09T11:36:38;20.30;1.00
46492;DHT22;32206;51.446;6.792;2022-09-09T11:41:49;20.40;1.00
46492;DHT22;32206;51.446;6.792;2022-09-09T11:44:25;20.40;1.00
46492;DHT22;32206;51.446;6.792;2022-09-09T11:46:53;20.50;99.90
46492;DHT22;32206;51.446;6.792;2022-09-09T11:49:44;20.60;99.90
46492;DHT22;32206;51.446;6.792;2022-09-09T11:52:24;20.60;99.90
46492;DHT22;32206;51.446;6.792;2022-09-09T11:54:54;20.70;99.90
46492;DHT22;32206;51.446;6.792;2022-09-09T11:57:27;20.70;99.90
46492;DHT22;32206;51.446;6.792;2022-09-09T11:59:56;20.70;99.90
46492;DHT22;32206;51.446;6.792;2022-09-09T12:02:23;20.60;99.90
46492;DHT22;32206;51.446;6.792;2022-09-09T12:05:08;20.60;99.90
46492;DHT22;32206;51.446;6.792;2022-09-09T12:07:38;20.60;99.90
46492;DHT22;32206;51.446;6.792;2022-09-09T12:12:38;20.80;99.90
46492;DHT22;32206;51.446;6.792;2022-09-09T12:17:44;20.80;99.90
46492;DHT22;32206;51.446;6.792;2022-09-09T12:20:14;20.70;99.90
46492;DHT22;32206;51.446;6.792;2022-09-09T12:28:53;20.60;1.00
46492;DHT22;32206;51.446;6.792;2022-09-09T12:34:31;20.60;99.90
46492;DHT22;32206;51.446;6.792;2022-09-09T12:37:11;20.60;99.90
46492;DHT22;32206;51.446;6.792;2022-09-09T12:39:59;20.50;1.00
46492;DHT22;32206;51.446;6.792;2022-09-09T12:42:28;20.40;1.00
46492;DHT22;32206;51.446;6.792;2022-09-09T12:45:01;20.10;99.90
46492;DHT22;32206;51.446;6.792;2022-09-09T12:49:57;19.70;99.90
46492;DHT22;32206;51.446;6.792;2022-09-09T12:52:29;19.80;1.00
46492;DHT22;32206;51.446;6.792;2022-09-09T12:54:59;19.50;1.00
46492;DHT22;32206;51.446;6.792;2022-09-09T12:57:26;19.30;1.00
46492;DHT22;32206;51.446;6.792;2022-09-09T13:00:04;19.20;1.00
46492;DHT22;32206;51.446;6.792;2022-09-09T13:02:31;19.10;1.00
46492;DHT22;32206;51.446;6.792;2022-09-09T13:05:06;19.00;1.00
46492;DHT22;32206;51.446;6.792;2022-09-09T13:07:38;18.90;1.00
46492;DHT22;32206;51.446;6.792;2022-09-09T13:10:04;18.70;8.40
46492;DHT22;32206;51.446;6.792;2022-09-09T13:12:30;18.60;20.40
46492;DHT22;32206;51.446;6.792;2022-09-09T13:14:56;18.40;30.90
46492;DHT22;32206;51.446;6.792;2022-09-09T13:17:24;18.30;42.50
46492;DHT22;32206;51.446;6.792;2022-09-09T13:19:51;18.20;46.40
46492;DHT22;32206;51.446;6.792;2022-09-09T13:22:30;18.20;54.20
46492;DHT22;32206;51.446;6.792;2022-09-09T13:27:33;18.20;71.70
46492;DHT22;32206;51.446;6.792;2022-09-09T13:30:00;18.30;70.30
46492;DHT22;32206;51.446;6.792;2022-09-09T13:32:27;18.30;70.00
46492;DHT22;32206;51.446;6.792;2022-09-09T13:34:58;18.30;85.30
46492;DHT22;32206;51.446;6.792;2022-09-09T13:37:38;18.50;70.60
46492;DHT22;32206;51.446;6.792;2022-09-09T13:40:05;18.40;63.30
46492;DHT22;32206;51.446;6.792;2022-09-09T13:42:34;18.50;71.80
46492;DHT22;32206;51.446;6.792;2022-09-09T13:45:03;18.60;72.40
46492;DHT22;32206;51.446;6.792;2022-09-09T13:47:34;18.70;75.30
46492;DHT22;32206;51.446;6.792;2022-09-09T13:50:26;18.80;71.60
46492;DHT22;32206;51.446;6.792;2022-09-09T13:52:53;18.80;23.70
46492;DHT22;32206;51.446;6.792;2022-09-09T13:55:23;18.80;16.60
46492;DHT22;32206;51.446;6.792;2022-09-09T13:57:54;18.90;27.40
46492;DHT22;32206;51.446;6.792;2022-09-09T14:00:20;19.00;37.80
46492;DHT22;32206;51.446;6.792;2022-09-09T14:02:47;19.10;65.70
46492;DHT22;32206;51.446;6.792;2022-09-09T14:05:13;19.30;53.40
46492;DHT22;32206;51.446;6.792;2022-09-09T14:07:42;19.40;43.80
46492;DHT22;32206;51.446;6.792;2022-09-09T14:10:09;19.50;18.10
46492;DHT22;32206;51.446;6.792;2022-09-09T14:12:34;19.60;1.00
46492;DHT22;32206;51.446;6.792;2022-09-09T14:15:02;19.60;1.00
46492;DHT22;32206;51.446;6.792;2022-09-09T14:17:28;19.50;1.00
46492;DHT22;32206;51.446;6.792;2022-09-09T14:19:55;19.50;1.00
46492;DHT22;32206;51.446;6.792;2022-09-09T14:22:24;19.60;1.00
46492;DHT22;32206;51.446;6.792;2022-09-09T14:24:50;19.60;1.00
46492;DHT22;32206;51.446;6.792;2022-09-09T14:27:16;19.60;1.00
46492;DHT22;32206;51.446;6.792;2022-09-09T14:29:43;19.60;1.00
46492;DHT22;32206;51.446;6.792;2022-09-09T14:32:10;19.60;1.00
46492;DHT22;32206;51.446;6.792;2022-09-09T14:34:35;19.60;1.00
46492;DHT22;32206;51.446;6.792;2022-09-09T14:37:01;19.60;1.00
46492;DHT22;32206;51.446;6.792;2022-09-09T14:39:27;19.60;1.00
46492;DHT22;32206;51.446;6.792;2022-09-09T14:41:52;19.50;1.00
46492;DHT22;32206;51.446;6.792;2022-09-09T14:44:18;19.30;1.00
46492;DHT22;32206;51.446;6.792;2022-09-09T14:46:44;18.90;1.00
46492;DHT22;32206;51.446;6.792;2022-09-09T14:49:10;18.50;1.50
46492;DHT22;32206;51.446;6.792;2022-09-09T14:51:38;18.20;23.20
46492;DHT22;32206;51.446;6.792;2022-09-09T14:54:04;18.00;12.90
46492;DHT22;32206;51.446;6.792;2022-09-09T14:56:32;17.70;23.30
46492;DHT22;32206;51.446;6.792;2022-09-09T14:59:00;17.50;33.00
46492;DHT22;32206;51.446;6.792;2022-09-09T15:01:30;17.30;41.40
46492;DHT22;32206;51.446;6.792;2022-09-09T15:03:58;17.30;58.00
46492;DHT22;32206;51.446;6.792;2022-09-09T15:06:25;17.20;58.60
46492;DHT22;32206;51.446;6.792;2022-09-09T15:08:52;17.20;63.20
46492;DHT22;32206;51.446;6.792;2022-09-09T15:11:19;17.20;67.10
46492;DHT22;32206;51.446;6.792;2022-09-09T15:13:45;17.10;68.60
46492;DHT22;32206;51.446;6.792;2022-09-09T15:16:18;17.10;69.80
46492;DHT22;32206;51.446;6.792;2022-09-09T15:18:45;17.10;78.50
46492;DHT22;32206;51.446;6.792;2022-09-09T15:21:16;17.10;78.90
46492;DHT22;32206;51.446;6.792;2022-09-09T15:23:44;17.10;83.60
46492;DHT22;32206;51.446;6.792;2022-09-09T15:26:11;17.10;88.50
46492;DHT22;32206;51.446;6.792;2022-09-09T15:28:38;17.10;90.40
46492;DHT22;32206;51.446;6.792;2022-09-09T15:33:39;17.30;92.80
46492;DHT22;32206;51.446;6.792;2022-09-09T15:36:15;17.40;96.00
46492;DHT22;32206;51.446;6.792;2022-09-09T15:38:41;17.40;96.40
46492;DHT22;32206;51.446;6.792;2022-09-09T15:41:07;17.50;93.90
46492;DHT22;32206;51.446;6.792;2022-09-09T15:43:32;17.50;91.10
46492;DHT22;32206;51.446;6.792;2022-09-09T15:48:56;17.70;93.00
46492;DHT22;32206;51.446;6.792;2022-09-09T15:51:23;17.80;86.40
46492;DHT22;32206;51.446;6.792;2022-09-09T15:54:15;17.90;86.00
46492;DHT22;32206;51.446;6.792;2022-09-09T15:56:46;17.80;78.60
46492;DHT22;32206;51.446;6.792;2022-09-09T15:59:13;17.70;69.90
46492;DHT22;32206;51.446;6.792;2022-09-09T16:01:40;17.80;78.90
46492;DHT22;32206;51.446;6.792;2022-09-09T16:04:05;18.10;76.70
46492;DHT22;32206;51.446;6.792;2022-09-09T16:06:31;17.80;73.40
46492;DHT22;32206;51.446;6.792;2022-09-09T16:08:58;17.90;69.00
46492;DHT22;32206;51.446;6.792;2022-09-09T16:11:32;17.70;78.90
46492;DHT22;32206;51.446;6.792;2022-09-09T16:13:58;17.60;73.30
46492;DHT22;32206;51.446;6.792;2022-09-09T16:16:27;17.60;75.30
46492;DHT22;32206;51.446;6.792;2022-09-09T16:18:56;17.50;72.60
46492;DHT22;32206;51.446;6.792;2022-09-09T16:21:25;17.60;72.50
46492;DHT22;32206;51.446;6.792;2022-09-09T16:23:52;17.50;69.40
46492;DHT22;32206;51.446;6.792;2022-09-09T16:26:21;17.40;71.60
46492;DHT22;32206;51.446;6.792;2022-09-09T16:28:47;17.30;85.30
46492;DHT22;32206;51.446;6.792;2022-09-09T16:31:15;17.40;89.40
46492;DHT22;32206;51.446;6.792;2022-09-09T16:33:42;17.40;87.40
46492;DHT22;32206;51.446;6.792;2022-09-09T16:36:10;17.40;89.00
46492;DHT22;32206;51.446;6.792;2022-09-09T16:38:36;17.40;91.00
46492;DHT22;32206;51.446;6.792;2022-09-09T16:41:03;17.30;90.50
46492;DHT22;32206;51.446;6.792;2022-09-09T16:43:31;17.30;91.70
46492;DHT22;32206;51.446;6.792;2022-09-09T16:45:57;17.30;93.40
46492;DHT22;32206;51.446;6.792;2022-09-09T16:48:34;17.30;94.50
46492;DHT22;32206;51.446;6.792;2022-09-09T16:51:06;17.30;96.20
46492;DHT22;32206;51.446;6.792;2022-09-09T16:53:33;17.30;97.60
46492;DHT22;32206;51.446;6.792;2022-09-09T16:56:20;17.60;98.10
46492;DHT22;32206;51.446;6.792;2022-09-09T16:58:55;17.30;98.10
46492;DHT22;32206;51.446;6.792;2022-09-09T17:01:25;17.40;98.10
46492;DHT22;32206;51.446;6.792;2022-09-09T17:03:55;17.40;98.40
46492;DHT22;32206;51.446;6.792;2022-09-09T17:06:21;17.50;98.40
46492;DHT22;32206;51.446;6.792;2022-09-09T17:08:47;17.40;98.50
46492;DHT22;32206;51.446;6.792;2022-09-09T17:11:15;17.40;98.20
46492;DHT22;32206;51.446;6.792;2022-09-09T17:13:44;17.40;98.10
46492;DHT22;32206;51.446;6.792;2022-09-09T17:16:11;17.40;98.10
46492;DHT22;32206;51.446;6.792;2022-09-09T17:18:37;17.60;98.20
46492;DHT22;32206;51.446;6.792;2022-09-09T17:21:08;17.40;98.30
46492;DHT22;32206;51.446;6.792;2022-09-09T17:23:35;17.20;98.60
46492;DHT22;32206;51.446;6.792;2022-09-09T17:26:06;17.10;99.40
46492;DHT22;32206;51.446;6.792;2022-09-09T17:28:33;17.10;99.30
46492;DHT22;32206;51.446;6.792;2022-09-09T17:31:00;17.20;99.10
46492;DHT22;32206;51.446;6.792;2022-09-09T17:33:31;17.20;98.40
46492;DHT22;32206;51.446;6.792;2022-09-09T17:36:01;17.10;99.10
46492;DHT22;32206;51.446;6.792;2022-09-09T17:38:28;17.20;99.00
46492;DHT22;32206;51.446;6.792;2022-09-09T17:41:10;17.20;98.80
46492;DHT22;32206;51.446;6.792;2022-09-09T17:43:36;17.20;98.50
46492;DHT22;32206;51.446;6.792;2022-09-09T17:46:15;17.10;99.10
46492;DHT22;32206;51.446;6.792;2022-09-09T17:48:41;17.10;99.50
46492;DHT22;32206;51.446;6.792;2022-09-09T17:51:09;17.10;99.00
46492;DHT22;32206;51.446;6.792;2022-09-09T17:53:38;17.10;99.10
46492;DHT22;32206;51.446;6.792;2022-09-09T17:56:06;17.10;99.60
46492;DHT22;32206;51.446;6.792;2022-09-09T17:58:32;17.10;99.60
46492;DHT22;32206;51.446;6.792;2022-09-09T18:01:06;17.10;99.30
46492;DHT22;32206;51.446;6.792;2022-09-09T18:03:36;17.10;99.60
46492;DHT22;32206;51.446;6.792;2022-09-09T18:06:14;17.20;99.40
46492;DHT22;32206;51.446;6.792;2022-09-09T18:08:41;17.10;99.60
46492;DHT22;32206;51.446;6.792;2022-09-09T18:11:07;17.40;99.80
46492;DHT22;32206;51.446;6.792;2022-09-09T18:13:33;17.10;99.40
46492;DHT22;32206;51.446;6.792;2022-09-09T18:15:59;17.20;99.60
46492;DHT22;32206;51.446;6.792;2022-09-09T18:18:26;17.10;99.60
46492;DHT22;32206;51.446;6.792;2022-09-09T18:23:24;17.00;99.60